Time;durP1;ratioP1;P1;durP2;ratioP2;P2;SDS_P1;SDS_P2;PMS_P1;PMS_P2;Temp;Humidity;BMP_temperature;BMP_pressure;BME280_temperature;BME280_humidity;BME280_pressure;Samples;Min_cycle;Max_cycle;Signal;HPM_P1;HPM_P2
2022/04/25 00:02:12;;;;;;;20.17;18.08;;;7.40;99.90;;;;;;5052576;28;20470;-74
2022/04/25 00:04:37;;;;;;;20.35;18.40;;;7.40;99.90;;;;;;5054593;28;20379;-75
2022/04/25 00:07:03;;;;;;;20.88;18.98;;;7.40;99.90;;;;;;5054580;28;20071;-75
2022/04/25 00:09:28;;;;;;;21.08;19.05;;;7.40;99.90;;;;;;5055305;28;20063;-76
2022/04/25 00:11:54;;;;;;;21.15;19.13;;;7.50;99.90;;;;;;5052872;28;20071;-75
2022/04/25 00:14:19;;;;;;;19.95;17.88;;;7.40;99.90;;;;;;5053281;28;20017;-75
2022/04/25 00:16:45;;;;;;;21.75;19.75;;;7.40;99.90;;;;;;5053018;28;20148;-75
2022/04/25 00:19:10;;;;;;;21.45;19.45;;;7.50;99.90;;;;;;5054238;28;20035;-75
2022/04/25 00:21:36;;;;;;;20.90;18.85;;;7.50;99.90;;;;;;5039016;28;20475;-74
2022/04/25 00:24:02;;;;;;;19.58;17.77;;;7.50;99.90;;;;;;5054298;28;20025;-74
2022/04/25 00:26:27;;;;;;;20.65;18.70;;;7.60;99.90;;;;;;5053974;28;20438;-74
2022/04/25 00:28:53;;;;;;;21.10;19.10;;;7.60;99.90;;;;;;5054142;28;20032;-74
2022/04/25 00:31:18;;;;;;;20.27;18.30;;;7.60;99.90;;;;;;5052026;28;20028;-74
2022/04/25 00:33:44;;;;;;;20.88;18.77;;;7.60;99.90;;;;;;5054050;28;20467;-76
2022/04/25 00:36:09;;;;;;;21.67;19.58;;;7.60;99.90;;;;;;5054145;28;20036;-76
2022/04/25 00:38:35;;;;;;;22.08;19.98;;;7.50;99.90;;;;;;5051900;28;20523;-76
2022/04/25 00:41:01;;;;;;;24.20;21.83;;;7.50;99.90;;;;;;5053280;28;20025;-76
2022/04/25 00:43:26;;;;;;;21.25;19.25;;;7.50;99.90;;;;;;5053962;28;20025;-76
2022/04/25 00:45:52;;;;;;;21.02;19.13;;;7.50;99.90;;;;;;5053790;28;20021;-76
2022/04/25 00:48:17;;;;;;;22.55;20.27;;;7.50;99.90;;;;;;5052640;28;20035;-76
2022/04/25 00:50:45;;;;;;;23.77;21.55;;;7.50;99.90;;;;;;5051967;28;20055;-76
2022/04/25 00:53:10;;;;;;;24.08;21.88;;;7.50;99.90;;;;;;5041826;28;20078;-76
2022/04/25 00:55:36;;;;;;;23.42;21.13;;;7.50;99.90;;;;;;5038852;28;20545;-76
2022/04/25 00:58:03;;;;;;;23.88;21.63;;;7.50;99.90;;;;;;5046059;28;20033;-76
2022/04/25 01:00:28;;;;;;;23.08;20.58;;;7.50;99.90;;;;;;5046140;28;20029;-75
2022/04/25 01:02:54;;;;;;;23.02;20.92;;;7.60;99.90;;;;;;5040231;28;20075;-76
2022/04/25 01:05:20;;;;;;;23.98;21.67;;;7.60;99.90;;;;;;5052170;28;20108;-75
2022/04/25 01:07:45;;;;;;;25.95;23.35;;;7.60;99.90;;;;;;5053390;28;20107;-76
2022/04/25 01:10:11;;;;;;;25.10;22.73;;;7.60;99.90;;;;;;5051661;28;20048;-75
2022/04/25 01:12:37;;;;;;;26.67;23.85;;;7.60;99.90;;;;;;5052946;28;20521;-75
2022/04/25 01:15:12;;;;;;;25.20;22.80;;;7.60;99.90;;;;;;5038454;28;20030;-74
2022/04/25 01:17:38;;;;;;;30.08;27.08;;;7.60;99.90;;;;;;5053114;28;20395;-75
2022/04/25 01:20:05;;;;;;;26.73;24.02;;;7.60;99.90;;;;;;5051743;28;20025;-74
2022/04/25 01:22:40;;;;;;;27.75;24.92;;;7.60;99.90;;;;;;5052436;28;20036;-74
2022/04/25 01:27:50;;;;;;;28.67;25.90;;;7.50;99.90;;;;;;5045913;28;20056;-75
2022/04/25 01:30:15;;;;;;;27.02;24.48;;;7.60;99.90;;;;;;5038923;28;20475;-74
2022/04/25 01:32:41;;;;;;;28.25;25.52;;;7.60;99.90;;;;;;5052836;28;20448;-75
2022/04/25 01:35:07;;;;;;;27.20;24.58;;;7.60;99.90;;;;;;5052742;28;20043;-75
2022/04/25 01:37:33;;;;;;;27.60;24.88;;;7.50;99.90;;;;;;5052695;28;20017;-75
2022/04/25 01:39:58;;;;;;;29.05;26.13;;;7.50;99.90;;;;;;5051441;28;20021;-74
2022/04/25 01:42:24;;;;;;;30.42;27.52;;;7.60;99.90;;;;;;5050993;28;20429;-73
2022/04/25 01:44:51;;;;;;;28.80;26.00;;;7.50;99.90;;;;;;5051346;28;20024;-73
2022/04/25 01:47:17;;;;;;;26.63;24.02;;;7.60;99.90;;;;;;5052747;28;20103;-74
2022/04/25 01:49:43;;;;;;;26.77;24.17;;;7.60;99.90;;;;;;5050702;28;20073;-75
2022/04/25 01:52:29;;;;;;;31.38;28.25;;;7.70;99.90;;;;;;5038342;28;20032;-75
2022/04/25 01:54:56;;;;;;;27.90;25.27;;;7.60;99.90;;;;;;5040752;28;20029;-73
2022/04/25 01:57:21;;;;;;;27.50;24.90;;;7.50;99.90;;;;;;5051197;28;20057;-73
2022/04/25 01:59:47;;;;;;;29.40;26.50;;;7.50;99.90;;;;;;5052290;28;20442;-73
2022/04/25 02:02:13;;;;;;;30.38;27.17;;;7.50;99.90;;;;;;5050272;28;20067;-74
2022/04/25 02:04:39;;;;;;;28.55;25.85;;;7.60;99.90;;;;;;5052162;28;20013;-74
2022/04/25 02:07:10;;;;;;;33.63;30.23;;;7.60;99.90;;;;;;5052214;28;20057;-74
2022/04/25 02:09:37;;;;;;;32.33;29.05;;;7.50;99.90;;;;;;5052142;28;20055;-74
2022/04/25 02:12:03;;;;;;;29.42;26.55;;;7.50;99.90;;;;;;5051471;28;20029;-73
2022/04/25 02:14:29;;;;;;;30.45;27.45;;;7.60;99.90;;;;;;5052033;28;20025;-73
2022/04/25 02:16:58;;;;;;;32.50;29.10;;;7.60;99.90;;;;;;5052101;28;20025;-73
2022/04/25 02:19:27;;;;;;;33.70;30.20;;;7.60;99.90;;;;;;5052006;28;20059;-74
2022/04/25 02:21:54;;;;;;;30.58;27.50;;;7.30;99.90;;;;;;5051478;28;20052;-75
2022/04/25 02:24:20;;;;;;;29.92;26.92;;;7.50;99.90;;;;;;5051994;28;20078;-75
2022/04/25 02:26:48;;;;;;;27.80;24.95;;;7.50;99.90;;;;;;5051937;28;20017;-74
2022/04/25 02:29:13;;;;;;;30.45;27.42;;;7.60;99.90;;;;;;5051772;28;20021;-75
2022/04/25 02:31:39;;;;;;;30.95;27.88;;;7.60;99.90;;;;;;5049899;28;20363;-74
2022/04/25 02:34:04;;;;;;;32.22;29.05;;;7.60;99.90;;;;;;5051985;28;20099;-75
2022/04/25 02:36:30;;;;;;;29.95;27.00;;;7.70;99.90;;;;;;5051882;28;20029;-75
2022/04/25 02:38:55;;;;;;;28.40;25.50;;;7.60;99.90;;;;;;5051665;28;20478;-75
2022/04/25 02:41:21;;;;;;;27.70;25.10;;;7.60;99.90;;;;;;5051321;28;20025;-76
2022/04/25 02:43:46;;;;;;;27.52;24.73;;;7.60;99.90;;;;;;5051683;28;20718;-76
2022/04/25 02:46:16;;;;;;;27.70;24.83;;;7.70;99.90;;;;;;5050572;28;20115;-76
2022/04/25 02:48:45;;;;;;;27.25;24.45;;;7.60;99.90;;;;;;5052216;28;20402;-75
2022/04/25 02:51:12;;;;;;;28.30;25.60;;;7.50;99.90;;;;;;5049706;28;20033;-75
2022/04/25 02:53:38;;;;;;;28.65;25.95;;;7.70;99.90;;;;;;5051305;28;20028;-76
2022/04/25 02:56:05;;;;;;;26.55;24.13;;;7.70;99.90;;;;;;5050388;28;20033;-77
2022/04/25 02:58:33;;;;;;;27.25;24.65;;;7.60;99.90;;;;;;5051514;28;20116;-77
2022/04/25 03:01:00;;;;;;;27.83;25.02;;;7.60;99.90;;;;;;5050058;28;20514;-77
2022/04/25 03:03:26;;;;;;;27.15;24.50;;;7.60;99.90;;;;;;5037679;28;20183;-76
2022/04/25 03:05:53;;;;;;;28.92;25.90;;;7.80;99.90;;;;;;5045193;28;20021;-77
2022/04/25 03:08:21;;;;;;;30.48;27.48;;;7.70;99.90;;;;;;5044090;28;20471;-77
2022/04/25 03:10:48;;;;;;;30.10;27.02;;;7.60;99.90;;;;;;5036324;28;20051;-77
2022/04/25 03:13:15;;;;;;;35.22;31.45;;;7.70;99.90;;;;;;5038997;28;20549;-77
2022/04/25 03:15:43;;;;;;;33.65;30.05;;;7.60;99.90;;;;;;5045046;28;20029;-77
2022/04/25 03:18:12;;;;;;;34.70;31.10;;;7.40;99.90;;;;;;5044292;28;20025;-77
2022/04/25 03:20:39;;;;;;;33.63;30.13;;;7.40;99.90;;;;;;5036346;28;20025;-75
2022/04/25 03:23:08;;;;;;;39.72;35.42;;;7.40;99.90;;;;;;5049988;28;20509;-75
2022/04/25 03:25:34;;;;;;;42.97;38.33;;;7.50;99.90;;;;;;5038155;28;20138;-75
2022/04/25 03:28:00;;;;;;;42.00;37.03;;;7.40;99.90;;;;;;5051220;28;20502;-76
2022/04/25 03:30:27;;;;;;;39.95;35.63;;;7.20;99.90;;;;;;5050633;28;20087;-76
2022/04/25 03:32:52;;;;;;;41.70;37.10;;;7.30;99.90;;;;;;5049924;28;20479;-76
2022/04/25 03:35:19;;;;;;;39.40;35.17;;;7.40;99.90;;;;;;5051185;28;20036;-75
2022/04/25 03:37:46;;;;;;;44.25;37.40;;;7.40;99.90;;;;;;5051152;28;20517;-75
2022/04/25 03:40:12;;;;;;;40.65;34.75;;;7.30;99.90;;;;;;5050856;28;20048;-75
2022/04/25 03:42:39;;;;;;;35.70;32.20;;;7.30;99.90;;;;;;5050957;28;20017;-74
2022/04/25 03:45:07;;;;;;;37.28;33.38;;;7.30;99.90;;;;;;5049876;28;20047;-74
2022/04/25 03:47:33;;;;;;;35.40;31.70;;;7.20;99.90;;;;;;5050918;28;20017;-73
2022/04/25 03:49:58;;;;;;;44.20;37.30;;;7.30;99.90;;;;;;5041444;28;20116;-75
2022/04/25 03:52:24;;;;;;;39.55;35.30;;;7.20;99.90;;;;;;5045688;28;20399;-74
2022/04/25 03:57:34;;;;;;;45.13;37.60;;;7.20;99.90;;;;;;5050864;28;20079;-75
2022/04/25 03:59:59;;;;;;;40.63;33.70;;;7.30;99.90;;;;;;5050705;28;20029;-74
2022/04/25 04:02:25;;;;;;;40.13;35.65;;;7.40;99.90;;;;;;5050282;28;20082;-74
2022/04/25 04:04:50;;;;;;;35.55;31.75;;;7.50;99.90;;;;;;5050833;28;20490;-75
2022/04/25 04:07:16;;;;;;;31.85;28.60;;;7.60;99.90;;;;;;5050605;28;20402;-74
2022/04/25 04:09:47;;;;;;;33.80;30.38;;;7.60;99.90;;;;;;5049415;28;20056;-74
2022/04/25 04:12:17;;;;;;;34.78;31.17;;;7.70;99.90;;;;;;5050285;28;20056;-75
2022/04/25 04:14:44;;;;;;;35.83;32.08;;;7.70;99.90;;;;;;5052824;28;20052;-75
2022/04/25 04:17:09;;;;;;;33.35;29.83;;;7.60;99.90;;;;;;5054485;28;20025;-74
2022/04/25 04:19:36;;;;;;;36.45;32.53;;;7.70;99.90;;;;;;5054259;28;20636;-76
2022/04/25 04:22:02;;;;;;;36.95;33.15;;;7.70;99.90;;;;;;5053866;28;20042;-76
2022/04/25 04:24:28;;;;;;;33.20;29.85;;;7.70;99.90;;;;;;5054900;28;20063;-76
2022/04/25 04:26:55;;;;;;;34.10;30.50;;;7.70;99.90;;;;;;5054278;28;20478;-76
2022/04/25 04:29:21;;;;;;;38.58;34.42;;;7.70;99.90;;;;;;5055344;28;20029;-77
2022/04/25 04:31:46;;;;;;;33.20;29.92;;;7.60;99.90;;;;;;5047247;28;20140;-76
2022/04/25 04:34:12;;;;;;;29.85;26.85;;;7.60;99.90;;;;;;5046630;28;20057;-77
2022/04/25 04:36:38;;;;;;;32.70;29.27;;;7.70;99.90;;;;;;5053958;28;20047;-75
2022/04/25 04:39:04;;;;;;;29.00;26.00;;;7.70;99.90;;;;;;5053948;28;20036;-76
2022/04/25 04:41:30;;;;;;;32.00;28.77;;;7.70;99.90;;;;;;5051847;28;20024;-77
2022/04/25 04:43:58;;;;;;;33.67;30.20;;;7.70;99.90;;;;;;5055041;28;20032;-76
2022/04/25 04:46:24;;;;;;;32.85;29.55;;;7.70;99.90;;;;;;5054002;28;20025;-76
2022/04/25 04:48:50;;;;;;;30.70;27.52;;;7.70;99.90;;;;;;5053703;28;20024;-76
2022/04/25 04:51:16;;;;;;;32.20;29.10;;;7.80;99.90;;;;;;5051751;28;20403;-75
2022/04/25 04:53:41;;;;;;;29.75;26.80;;;7.80;99.90;;;;;;5052370;28;20029;-75
2022/04/25 04:56:07;;;;;;;31.42;28.10;;;7.80;99.90;;;;;;5053601;28;20121;-75
2022/04/25 04:58:32;;;;;;;30.73;27.63;;;7.90;99.90;;;;;;5053531;28;20029;-75
2022/04/25 05:00:59;;;;;;;33.20;29.80;;;7.90;99.90;;;;;;5051744;28;20040;-75
2022/04/25 05:03:25;;;;;;;31.77;28.50;;;7.90;99.90;;;;;;5052991;28;20027;-75
2022/04/25 05:05:52;;;;;;;32.20;28.95;;;7.90;99.90;;;;;;5053275;28;20021;-75
2022/04/25 05:08:18;;;;;;;29.70;26.80;;;7.90;99.90;;;;;;5050864;28;20390;-75
2022/04/25 05:10:43;;;;;;;33.15;29.75;;;8.00;99.90;;;;;;5052382;28;20036;-75
2022/04/25 05:13:09;;;;;;;35.63;31.90;;;8.00;99.90;;;;;;5052117;28;20033;-75
2022/04/25 05:15:36;;;;;;;33.47;30.13;;;7.90;99.90;;;;;;5053212;28;20398;-75
2022/04/25 05:18:02;;;;;;;34.38;30.83;;;7.90;99.90;;;;;;5053072;28;20033;-75
2022/04/25 05:20:28;;;;;;;35.10;31.40;;;7.90;99.90;;;;;;5051133;28;20108;-75
2022/04/25 05:22:55;;;;;;;32.75;29.42;;;7.90;99.90;;;;;;5052878;28;20033;-75
2022/04/25 05:25:23;;;;;;;34.47;30.88;;;8.00;99.90;;;;;;5052829;28;20025;-79
2022/04/25 05:27:50;;;;;;;33.35;30.00;;;8.00;99.90;;;;;;5051857;28;20021;-74
2022/04/25 05:30:17;;;;;;;34.50;31.00;;;8.00;99.90;;;;;;5052263;28;20036;-74
2022/04/25 05:33:05;;;;;;;34.47;30.90;;;8.00;99.90;;;;;;5052950;28;20017;-75
2022/04/25 05:35:33;;;;;;;36.53;32.65;;;8.10;99.90;;;;;;5042069;28;20067;-75
2022/04/25 05:38:00;;;;;;;36.10;32.35;;;8.00;99.90;;;;;;5052720;28;20025;-75
2022/04/25 05:40:26;;;;;;;37.53;33.58;;;7.80;99.90;;;;;;5052114;28;20060;-75
2022/04/25 05:42:55;;;;;;;33.70;30.15;;;7.90;99.90;;;;;;5052612;28;20025;-75
2022/04/25 05:45:22;;;;;;;34.08;30.52;;;7.90;99.90;;;;;;5052604;28;20029;-75
2022/04/25 05:47:48;;;;;;;49.20;41.03;;;7.90;99.90;;;;;;5052570;28;20104;-75
2022/04/25 05:53:01;;;;;;;42.30;37.70;;;7.90;99.90;;;;;;5039693;28;20552;-75
2022/04/25 05:55:30;;;;;;;39.53;34.95;;;8.00;99.90;;;;;;5052464;28;20060;-75
2022/04/25 05:57:57;;;;;;;36.97;33.28;;;7.90;99.90;;;;;;5052395;28;20104;-75
2022/04/25 06:00:22;;;;;;;34.90;31.25;;;7.90;99.90;;;;;;5051687;28;20025;-75
2022/04/25 06:02:48;;;;;;;36.42;32.70;;;7.80;99.90;;;;;;5052411;28;20024;-74
2022/04/25 06:05:15;;;;;;;36.08;32.30;;;7.70;99.90;;;;;;5052373;28;20109;-75
2022/04/25 06:07:45;;;;;;;38.03;34.25;;;7.80;99.90;;;;;;5052272;28;20021;-75
2022/04/25 06:10:16;;;;;;;37.67;33.80;;;7.90;99.90;;;;;;5050414;28;20021;-74
2022/04/25 06:12:49;;;;;;;33.33;29.92;;;7.90;99.90;;;;;;5052334;28;20071;-75
2022/04/25 06:15:16;;;;;;;35.75;32.17;;;7.90;99.90;;;;;;5052203;28;20111;-76
2022/04/25 06:17:42;;;;;;;36.25;32.45;;;7.90;99.90;;;;;;5050812;28;20029;-75
2022/04/25 06:20:09;;;;;;;36.22;32.53;;;8.00;99.90;;;;;;5038746;28;20039;-76
2022/04/25 06:22:35;;;;;;;33.70;30.30;;;8.10;99.90;;;;;;5041423;28;20494;-75
2022/04/25 06:25:01;;;;;;;35.90;32.17;;;8.10;99.90;;;;;;5047602;28;20074;-75
2022/04/25 06:27:26;;;;;;;38.20;34.08;;;8.10;99.90;;;;;;5050753;28;20024;-73
2022/04/25 06:29:52;;;;;;;34.47;30.95;;;8.10;99.90;;;;;;5051881;28;20035;-75
2022/04/25 06:32:19;;;;;;;36.78;32.92;;;8.10;99.90;;;;;;5051240;28;20101;-75
2022/04/25 06:34:45;;;;;;;35.58;31.80;;;8.10;99.90;;;;;;5050530;28;20033;-75
2022/04/25 06:37:11;;;;;;;36.85;33.05;;;8.10;99.90;;;;;;5049820;28;20029;-75
2022/04/25 06:39:37;;;;;;;34.08;30.63;;;8.20;99.90;;;;;;5051575;28;20024;-76
2022/04/25 06:42:04;;;;;;;37.75;33.75;;;8.30;99.90;;;;;;5049862;28;20024;-76
2022/04/25 06:44:30;;;;;;;35.75;32.05;;;8.30;99.90;;;;;;5051821;28;20108;-76
2022/04/25 06:46:56;;;;;;;35.35;31.63;;;8.30;99.90;;;;;;5051750;28;20168;-76
2022/04/25 06:49:23;;;;;;;37.63;33.70;;;8.30;99.90;;;;;;5051398;28;20033;-75
2022/04/25 06:51:53;;;;;;;35.55;31.95;;;8.40;99.90;;;;;;5049685;28;20115;-72
2022/04/25 06:54:20;;;;;;;34.42;30.92;;;8.30;99.90;;;;;;5050301;28;20584;-73
2022/04/25 06:56:46;;;;;;;36.65;32.85;;;8.30;99.90;;;;;;5050229;28;20110;-75
2022/04/25 06:59:12;;;;;;;36.72;32.75;;;8.30;99.90;;;;;;5052088;28;20028;-77
2022/04/25 07:01:39;;;;;;;38.60;32.58;;;8.30;99.90;;;;;;5051287;28;20028;-77
2022/04/25 07:04:06;;;;;;;31.30;28.15;;;8.30;99.90;;;;;;5050555;28;20096;-75
2022/04/25 07:06:32;;;;;;;36.30;32.60;;;8.50;99.90;;;;;;5049990;28;20028;-75
2022/04/25 07:08:58;;;;;;;32.22;29.08;;;8.40;99.90;;;;;;5051327;28;20390;-75
2022/04/25 07:11:23;;;;;;;31.50;28.40;;;8.50;99.90;;;;;;5050859;28;20033;-77
2022/04/25 07:13:49;;;;;;;35.67;31.98;;;8.80;99.90;;;;;;5051367;28;20032;-76
2022/04/25 07:16:15;;;;;;;31.40;28.23;;;8.80;99.90;;;;;;5051241;28;20025;-75
2022/04/25 07:18:41;;;;;;;30.33;27.10;;;8.80;99.90;;;;;;5051278;28;20021;-75
2022/04/25 07:29:21;;;;;;;30.52;27.33;;;9.10;99.90;;;;;;5043768;28;20032;-75
2022/04/25 07:31:47;;;;;;;32.47;29.17;;;9.10;99.90;;;;;;5050609;28;20040;-76
2022/04/25 07:34:12;;;;;;;31.30;28.15;;;8.90;99.90;;;;;;5051216;28;20017;-76
2022/04/25 07:36:38;;;;;;;29.63;26.65;;;8.90;99.90;;;;;;5049850;28;20385;-75
2022/04/25 07:39:04;;;;;;;31.15;27.95;;;8.70;99.90;;;;;;5050693;28;20032;-75
2022/04/25 07:41:29;;;;;;;32.25;28.83;;;8.70;99.90;;;;;;5050005;28;20538;-75
2022/04/25 07:43:55;;;;;;;31.45;28.15;;;8.70;99.90;;;;;;5049206;28;20111;-76
2022/04/25 07:46:23;;;;;;;32.38;29.17;;;8.80;99.90;;;;;;5049782;28;20449;-76
2022/04/25 07:48:49;;;;;;;30.98;27.88;;;8.70;99.90;;;;;;5052176;28;20025;-76
2022/04/25 07:51:15;;;;;;;30.23;27.23;;;8.70;99.90;;;;;;5054126;28;20102;-76
2022/04/25 07:53:41;;;;;;;30.10;27.05;;;8.80;99.90;;;;;;5053314;28;20029;-75
2022/04/25 07:56:07;;;;;;;32.45;29.13;;;8.80;99.90;;;;;;5053491;28;20033;-73
2022/04/25 07:58:34;;;;;;;34.20;30.50;;;8.80;99.90;;;;;;5054790;28;20071;-72
2022/04/25 08:01:00;;;;;;;36.65;32.78;;;8.80;99.90;;;;;;5054115;28;20021;-73
2022/04/25 08:03:26;;;;;;;33.90;30.33;;;8.90;99.90;;;;;;5054617;28;20020;-75
2022/04/25 08:05:51;;;;;;;33.65;30.10;;;9.00;99.90;;;;;;5054610;28;20019;-73
2022/04/25 08:08:17;;;;;;;36.45;32.75;;;9.00;99.90;;;;;;5054616;28;20025;-74
2022/04/25 08:10:42;;;;;;;35.00;31.17;;;8.90;99.90;;;;;;5053929;28;20139;-74
2022/04/25 08:18:36;;;;;;;37.03;33.05;;;9.00;99.90;;;;;;5041279;28;20036;-73
2022/04/25 08:21:01;;;;;;;41.20;33.88;;;9.00;99.90;;;;;;5042932;28;20021;-73
2022/04/25 08:23:27;;;;;;;37.70;33.78;;;9.00;99.90;;;;;;5051720;28;20509;-73
2022/04/25 08:25:53;;;;;;;32.53;29.02;;;9.10;99.90;;;;;;5053103;28;20081;-73
2022/04/25 08:28:19;;;;;;;32.33;28.88;;;9.10;99.90;;;;;;5054208;28;20475;-74
2022/04/25 08:30:46;;;;;;;32.20;28.83;;;9.20;99.90;;;;;;5053463;28;20051;-74
2022/04/25 08:33:12;;;;;;;33.05;29.60;;;9.00;99.90;;;;;;5054039;28;20086;-73
2022/04/25 08:35:38;;;;;;;32.78;29.23;;;8.80;99.90;;;;;;5041809;28;20175;-74
2022/04/25 08:38:04;;;;;;;31.00;27.80;;;8.80;99.90;;;;;;5051620;28;20471;-74
2022/04/25 08:40:29;;;;;;;33.28;29.77;;;8.90;99.90;;;;;;5051894;28;20086;-74
2022/04/25 08:42:57;;;;;;;32.38;28.95;;;9.00;99.90;;;;;;5053930;28;20056;-74
2022/04/25 08:45:23;;;;;;;32.97;29.52;;;9.10;99.90;;;;;;5053735;28;20029;-74
2022/04/25 08:47:57;;;;;;;34.72;30.05;;;9.20;99.90;;;;;;5039183;28;20458;-74
2022/04/25 08:50:24;;;;;;;32.58;29.08;;;9.10;99.90;;;;;;5051838;28;20372;-74
2022/04/25 08:52:51;;;;;;;30.58;27.13;;;9.20;99.90;;;;;;5053741;28;20491;-74
2022/04/25 08:55:17;;;;;;;29.38;26.38;;;9.30;99.90;;;;;;5052358;28;20029;-75
2022/04/25 08:57:44;;;;;;;31.17;28.02;;;9.30;99.90;;;;;;5053506;28;20025;-75
2022/04/25 09:00:11;;;;;;;31.60;28.40;;;9.20;99.90;;;;;;5052632;28;20112;-76
2022/04/25 09:02:39;;;;;;;29.02;26.05;;;9.20;99.90;;;;;;5053067;28;20029;-74
2022/04/25 09:05:08;;;;;;;31.65;28.35;;;9.20;99.90;;;;;;5053364;28;20017;-74
2022/04/25 09:07:38;;;;;;;30.73;27.58;;;9.50;99.90;;;;;;5040542;28;20022;-74
2022/04/25 09:10:11;;;;;;;30.77;27.42;;;9.30;99.90;;;;;;5052031;28;20029;-74
2022/04/25 09:12:38;;;;;;;29.98;26.85;;;9.40;99.90;;;;;;5053045;28;20025;-74
2022/04/25 09:15:08;;;;;;;29.30;26.35;;;9.50;99.90;;;;;;5053305;28;20032;-74
2022/04/25 09:17:38;;;;;;;30.00;26.80;;;9.60;99.90;;;;;;5053241;28;20025;-74
2022/04/25 09:20:05;;;;;;;32.47;29.08;;;9.60;99.90;;;;;;5051625;28;20505;-74
2022/04/25 09:22:35;;;;;;;26.10;23.40;;;9.50;99.90;;;;;;5052450;28;20033;-75
2022/04/25 09:25:12;;;;;;;24.65;22.13;;;9.60;99.90;;;;;;5038331;28;20044;-74
2022/04/25 09:27:39;;;;;;;20.95;18.88;;;9.80;99.90;;;;;;5041543;28;20075;-72
2022/04/25 09:30:23;;;;;;;23.65;21.25;;;9.90;99.90;;;;;;5053148;28;20029;-75
2022/04/25 09:32:52;;;;;;;20.33;18.33;;;10.00;99.90;;;;;;5062007;28;20024;-74
2022/04/25 09:35:29;;;;;;;18.88;17.08;;;10.10;99.90;;;;;;5063366;28;20047;-75
2022/04/25 09:37:57;;;;;;;18.60;16.73;;;10.10;99.90;;;;;;5063390;28;20048;-74
2022/04/25 09:40:24;;;;;;;16.63;15.00;;;10.00;99.90;;;;;;5059761;28;20102;-75
2022/04/25 09:43:14;;;;;;;14.80;13.50;;;10.00;99.90;;;;;;5052766;28;20027;-74
2022/04/25 09:45:40;;;;;;;15.32;13.88;;;9.70;99.90;;;;;;5039490;28;20483;-74
2022/04/25 09:48:16;;;;;;;14.85;13.55;;;9.80;99.90;;;;;;5039229;28;20526;-75
2022/04/25 09:50:41;;;;;;;15.07;13.57;;;9.80;99.90;;;;;;5051797;28;20039;-74
2022/04/25 09:53:09;;;;;;;15.02;13.63;;;10.10;99.90;;;;;;5053269;28;20036;-75
2022/04/25 09:55:36;;;;;;;14.75;13.40;;;10.20;99.90;;;;;;5052449;28;20073;-74
2022/04/25 09:58:14;;;;;;;14.43;13.02;;;10.40;99.90;;;;;;5052515;28;20025;-74
2022/04/25 10:00:39;;;;;;;13.32;12.13;;;10.50;99.90;;;;;;5051743;28;20072;-74
2022/04/25 10:03:06;;;;;;;12.55;11.45;;;10.40;99.90;;;;;;5051181;28;20491;-74
2022/04/25 10:05:39;;;;;;;12.77;11.68;;;10.40;99.90;;;;;;5052327;28;20100;-74
2022/04/25 10:08:07;;;;;;;13.02;11.85;;;10.50;99.90;;;;;;5051189;28;20055;-74
2022/04/25 10:10:34;;;;;;;16.33;14.73;;;10.40;99.90;;;;;;5051405;28;20025;-74
2022/04/25 10:13:00;;;;;;;14.85;13.55;;;10.60;99.90;;;;;;5051643;28;20017;-74
2022/04/25 10:15:26;;;;;;;14.70;13.32;;;10.50;99.90;;;;;;5052131;28;20029;-75
2022/04/25 10:17:54;;;;;;;14.45;13.10;;;10.70;99.90;;;;;;5050603;28;20463;-75
2022/04/25 10:20:19;;;;;;;15.10;13.70;;;10.70;99.90;;;;;;5036828;28;20029;-74
2022/04/25 10:22:46;;;;;;;13.98;12.68;;;10.80;99.90;;;;;;5039905;28;20510;-75
2022/04/25 10:25:11;;;;;;;13.90;12.60;;;11.20;99.90;;;;;;5044417;28;20032;-74
2022/04/25 10:27:41;;;;;;;12.85;11.65;;;11.60;99.90;;;;;;5041428;28;20032;-74
2022/04/25 10:30:17;;;;;;;12.82;11.63;;;11.50;99.90;;;;;;5051863;28;20119;-74
2022/04/25 10:32:43;;;;;;;13.95;12.65;;;11.50;99.90;;;;;;5051869;28;20056;-74
2022/04/25 10:35:29;;;;;;;12.60;11.45;;;11.40;99.90;;;;;;5051395;28;20025;-74
2022/04/25 10:37:55;;;;;;;12.48;11.38;;;11.50;99.90;;;;;;5051500;28;20029;-75
2022/04/25 10:46:13;;;;;;;14.02;12.68;;;11.30;99.90;;;;;;5051678;28;20023;-74
2022/04/25 10:49:09;;;;;;;12.60;11.50;;;11.50;99.90;;;;;;5050305;28;20021;-75
2022/04/25 10:51:39;;;;;;;12.40;11.30;;;11.70;99.90;;;;;;5045244;28;20056;-74
2022/04/25 10:54:05;;;;;;;11.65;10.65;;;12.10;99.90;;;;;;5049324;28;20044;-74
2022/04/25 10:56:32;;;;;;;11.90;10.80;;;12.10;99.90;;;;;;5044966;28;20020;-74
2022/04/25 10:59:26;;;;;;;10.68;9.68;;;12.60;99.90;;;;;;5049946;28;20495;-74
2022/04/25 11:01:53;;;;;;;10.60;9.70;;;12.30;99.90;;;;;;5050670;28;20348;-73
2022/04/25 11:04:20;;;;;;;10.27;9.27;;;12.40;99.90;;;;;;5051379;28;20479;-74
2022/04/25 11:06:46;;;;;;;9.35;8.55;;;12.10;99.90;;;;;;5051588;28;20074;-74
2022/04/25 11:09:41;;;;;;;8.02;7.22;;;12.00;99.90;;;;;;5050965;28;20061;-74
2022/04/25 11:12:07;;;;;;;8.15;7.43;;;12.00;99.90;;;;;;5050504;28;20033;-74
2022/04/25 11:14:33;;;;;;;8.35;7.65;;;11.80;99.90;;;;;;5051160;28;20096;-74
2022/04/25 11:17:12;;;;;;;9.10;8.20;;;11.60;99.90;;;;;;5050967;28;20036;-74
2022/04/25 11:19:51;;;;;;;9.75;8.75;;;11.60;99.90;;;;;;5050635;28;20024;-75
2022/04/25 11:22:48;;;;;;;9.25;8.43;;;11.70;99.90;;;;;;5050458;28;20573;-74
2022/04/25 11:25:23;;;;;;;8.70;7.80;;;11.80;99.90;;;;;;5054385;28;20092;-74
2022/04/25 11:28:01;;;;;;;7.53;6.93;;;11.70;99.90;;;;;;5054883;28;20111;-74
2022/04/25 11:30:27;;;;;;;7.90;7.18;;;11.70;99.90;;;;;;5046419;28;20501;-75
2022/04/25 11:33:00;;;;;;;8.38;7.57;;;11.60;99.90;;;;;;5055190;28;20160;-75
2022/04/25 11:35:26;;;;;;;8.50;7.38;;;11.60;99.90;;;;;;5055101;28;20021;-75
2022/04/25 11:37:55;;;;;;;8.20;7.50;;;11.70;99.90;;;;;;5054967;28;20087;-75
2022/04/25 11:40:22;;;;;;;7.32;6.72;;;12.20;99.90;;;;;;5054519;28;20021;-75
2022/04/25 11:42:48;;;;;;;7.95;7.15;;;12.10;99.90;;;;;;5054836;28;20029;-74
2022/04/25 11:45:13;;;;;;;7.60;6.90;;;12.10;99.90;;;;;;5053533;28;20112;-73
2022/04/25 11:47:39;;;;;;;7.88;7.13;;;11.70;99.90;;;;;;5054634;28;20021;-74
2022/04/25 11:50:10;;;;;;;9.10;8.20;;;12.00;99.90;;;;;;5054419;28;20041;-74
2022/04/25 11:52:54;;;;;;;7.57;6.88;;;12.10;99.90;;;;;;5054146;28;20433;-74
2022/04/25 11:55:34;;;;;;;8.07;7.38;;;12.40;99.90;;;;;;5049532;28;20013;-74
2022/04/25 11:58:00;;;;;;;7.75;6.80;;;12.30;99.90;;;;;;5050322;28;20540;-74
2022/04/25 12:00:26;;;;;;;7.15;6.45;;;12.20;99.90;;;;;;5053810;28;20595;-75
2022/04/25 12:02:51;;;;;;;7.93;7.20;;;12.30;99.90;;;;;;5054556;28;20092;-75
2022/04/25 12:05:31;;;;;;;8.20;7.50;;;12.50;99.90;;;;;;5064723;28;20024;-75
2022/04/25 12:16:14;;;;;;;7.05;6.45;;;12.90;99.90;;;;;;5055279;28;20461;-75
2022/04/25 12:18:50;;;;;;;7.10;6.50;;;13.00;99.90;;;;;;5054300;28;20021;-72
2022/04/25 12:21:17;;;;;;;7.15;6.20;;;13.30;99.90;;;;;;5053887;28;20108;-74
2022/04/25 12:23:47;;;;;;;6.20;5.60;;;14.00;99.90;;;;;;5039013;28;20071;-75
2022/04/25 12:26:20;;;;;;;11.45;8.77;;;14.80;99.90;;;;;;5054734;28;20671;-75
2022/04/25 12:29:10;;;;;;;6.30;5.70;;;14.80;99.90;;;;;;5041281;28;20036;-75
2022/04/25 12:31:43;;;;;;;5.70;5.20;;;14.30;99.90;;;;;;5048361;28;20071;-75
2022/04/25 12:34:09;;;;;;;5.75;5.20;;;14.60;99.90;;;;;;5042161;28;20021;-75
2022/04/25 12:36:37;;;;;;;6.07;5.47;;;15.50;99.90;;;;;;5051759;28;20079;-75
2022/04/25 12:39:10;;;;;;;4.45;4.05;;;16.60;99.90;;;;;;5053874;28;20017;-75
2022/04/25 12:41:38;;;;;;;3.67;3.08;;;15.90;99.90;;;;;;5053218;28;20060;-75
2022/04/25 12:44:09;;;;;;;4.13;3.72;;;16.40;99.90;;;;;;5053873;28;20082;-75
2022/04/25 12:46:39;;;;;;;4.05;3.65;;;17.00;99.90;;;;;;5041159;28;20025;-75
2022/04/25 12:49:11;;;;;;;5.43;3.97;;;16.80;99.90;;;;;;5053545;28;20021;-75
2022/04/25 12:51:37;;;;;;;4.10;3.80;;;16.70;99.90;;;;;;5053201;28;20033;-75
2022/04/25 12:54:05;;;;;;;3.03;2.80;;;16.30;99.90;;;;;;5053440;28;20050;-76
2022/04/25 12:56:34;;;;;;;3.50;3.20;;;17.40;99.90;;;;;;5053804;28;20033;-74
2022/04/25 12:59:00;;;;;;;3.63;3.05;;;17.40;99.90;;;;;;5053503;28;20017;-76
2022/04/25 13:01:26;;;;;;;3.10;2.80;;;15.90;99.90;;;;;;5053193;28;20017;-75
2022/04/25 13:04:14;;;;;;;3.42;3.03;;;14.70;99.90;;;;;;5038950;28;20017;-76
2022/04/25 13:06:44;;;;;;;3.15;2.85;;;15.40;99.90;;;;;;5052341;28;20025;-76
2022/04/25 13:09:11;;;;;;;2.80;2.60;;;15.60;99.90;;;;;;5047333;28;20430;-74
2022/04/25 13:11:38;;;;;;;3.75;3.38;;;15.60;99.90;;;;;;5044688;28;20122;-74
2022/04/25 13:14:04;;;;;;;3.30;3.00;;;15.40;99.90;;;;;;5053448;28;20414;-75
2022/04/25 13:16:30;;;;;;;3.05;2.85;;;15.50;99.90;;;;;;5053429;28;20108;-74
2022/04/25 13:18:56;;;;;;;3.10;2.80;;;15.60;99.90;;;;;;5046965;28;20096;-75